Aberaeron, United Kingdom
Current Conditions -  °F | °C
As of 7:50 AM on Sunday 23 Nov 2014 (Local Time) from EGOP Reporting Station
Broken Clouds Broken Clouds  
Wind Chill: 41°   Ceiling: 12000
Heat Index: 45°   Visibility: 6mi
Dew Point: 43°   Wind: 7mph
Humidity: 93%   Direction: 360°N
Pressure: 30.06"   Gusts: NA
Location:  52.24°N, 4.26°W
Report Text: EGOP 230750Z AUTO 36006KT 9999 // BKN120/// 07/06 Q1018
Loading
Personal Weather Stations






























Interactive Weather Map New forecast layout! Learn more

10-Day Weather Forecast

Advertisements
Track Severe Weather on mobile